createdAt,value
2024-03-22T00:01:01.369Z,101591.74
2024-03-22T00:04:30.270Z,101592.77
2024-03-22T00:07:59.522Z,101596.56
2024-03-22T00:11:28.198Z,101594.45
2024-03-22T00:14:37.302Z,101595.60
2024-03-22T00:17:46.692Z,101588.42
2024-03-22T00:21:09.002Z,101587.34
2024-03-22T00:24:03.259Z,101592.37
2024-03-22T00:27:12.044Z,101592.84
2024-03-22T00:30:30.999Z,101591.21
2024-03-22T00:34:00.276Z,101587.66
2024-03-22T00:37:14.887Z,101591.60
2024-03-22T00:40:44.388Z,101593.48
2024-03-22T00:43:46.563Z,101598.27
2024-03-22T00:47:09.275Z,101604.09
2024-03-22T00:50:38.270Z,101607.54
2024-03-22T00:53:47.164Z,101600.70
2024-03-22T00:57:15.820Z,101596.27
2024-03-22T01:00:17.822Z,101596.91
2024-03-22T01:03:36.838Z,101596.34
2024-03-22T01:06:29.332Z,101597.33
2024-03-22T01:09:38.156Z,101596.75
2024-03-22T01:12:46.016Z,101599.17
2024-03-22T01:16:14.978Z,101597.20
2024-03-22T01:19:43.787Z,101596.27
2024-03-22T01:22:55.500Z,101596.94
2024-03-22T01:25:59.774Z,101594.80
2024-03-22T01:29:19.790Z,101590.23
2024-03-22T01:32:11.979Z,101584.23
2024-03-22T01:35:20.483Z,101582.80
2024-03-22T01:38:49.282Z,101578.21
2024-03-22T01:42:10.974Z,101580.11
2024-03-22T01:45:31.300Z,101581.63
2024-03-22T01:48:33.470Z,101588.90
2024-03-22T01:51:45.463Z,101583.30
2024-03-22T01:55:13.854Z,101578.78
2024-03-22T01:58:33.341Z,101573.42
2024-03-22T02:02:01.817Z,101577.98
2024-03-22T02:05:30.664Z,101586.05
2024-03-22T02:08:42.719Z,101586.27
2024-03-22T02:12:11.513Z,101584.21
2024-03-22T02:15:35.097Z,101578.72
2024-03-22T02:18:44.685Z,101579.44
2024-03-22T02:21:53.485Z,101583.11
2024-03-22T02:24:59.479Z,101588.73
2024-03-22T02:28:29.433Z,101584.56
2024-03-22T02:31:38.198Z,101580.95
2024-03-22T02:34:06.704Z,101587.23
2024-03-22T02:36:40.225Z,101585.87
2024-03-22T02:39:11.811Z,101583.09
2024-03-22T02:41:51.383Z,101577.75
2024-03-22T02:44:46.425Z,101581.45
2024-03-22T02:47:30.899Z,101582.18
2024-03-22T02:50:03.463Z,101580.11
2024-03-22T02:52:33.138Z,101582.04
2024-03-22T02:55:02.107Z,101585.16
2024-03-22T02:57:34.728Z,101587.43
2024-03-22T03:00:03.497Z,101588.63
2024-03-22T03:02:32.310Z,101585.86
2024-03-22T03:05:02.448Z,101589.39
2024-03-22T03:07:36.867Z,101589.07
2024-03-22T03:10:08.758Z,101590.84
2024-03-22T03:12:37.450Z,101583.05
2024-03-22T03:15:06.354Z,101581.54
2024-03-22T03:17:46.103Z,101585.58
2024-03-22T03:20:16.062Z,101587.03
2024-03-22T03:22:54.996Z,101591.77
2024-03-22T03:25:32.538Z,101595.08
2024-03-22T03:28:34.769Z,101595.63
2024-03-22T03:31:06.577Z,101596.02
2024-03-22T03:33:35.329Z,101602.80
2024-03-22T03:36:10.563Z,101602.96
2024-03-22T03:39:09.550Z,101603.98
2024-03-22T03:41:58.869Z,101600.30
2024-03-22T03:45:27.733Z,101602.39
2024-03-22T03:48:49.588Z,101602.68
2024-03-22T03:52:18.670Z,101611.13
2024-03-22T03:55:47.618Z,101615.40
2024-03-22T03:59:17.398Z,101608.71
2024-03-22T04:02:48.012Z,101600.95
2024-03-22T04:06:18.333Z,101594.93
2024-03-22T04:09:47.179Z,101600.35
2024-03-22T04:13:15.666Z,101601.87
2024-03-22T04:16:44.463Z,101595.63
2024-03-22T04:20:06.025Z,101594.45
2024-03-22T04:23:35.002Z,101588.41
2024-03-22T04:26:40.082Z,101593.85
2024-03-22T04:30:09.253Z,101589.05
2024-03-22T04:33:37.791Z,101591.19
2024-03-22T04:36:47.413Z,101597.86
2024-03-22T04:40:12.171Z,101595.50
2024-03-22T04:43:24.516Z,101600.46
2024-03-22T04:46:52.859Z,101610.30
2024-03-22T04:50:22.322Z,101605.38
2024-03-22T04:53:51.458Z,101602.17
2024-03-22T04:57:20.172Z,101593.04
2024-03-22T05:00:00.326Z,101586.59
2024-03-22T05:03:23.652Z,101587.55
2024-03-22T05:06:20.690Z,101589.32
2024-03-22T05:09:49.851Z,101588.46
2024-03-22T05:13:18.827Z,101585.55
2024-03-22T05:16:47.562Z,101579.16
2024-03-22T05:19:52.760Z,101576.87
2024-03-22T05:23:17.952Z,101572.85
2024-03-22T05:26:40.039Z,101571.84
2024-03-22T05:29:44.420Z,101571.38
2024-03-22T05:32:39.121Z,101567.27
2024-03-22T05:35:48.257Z,101564.88
2024-03-22T05:38:17.156Z,101565.63
2024-03-22T05:41:34.909Z,101563.56
2024-03-22T05:44:44.165Z,101562.73
2024-03-22T05:48:04.457Z,101560.36
2024-03-22T05:51:32.924Z,101561.98
2024-03-22T05:54:00.997Z,101561.71
2024-03-22T05:56:44.314Z,101562.13
2024-03-22T06:00:05.486Z,101562.84
2024-03-22T06:02:58.307Z,101563.14
2024-03-22T06:05:51.131Z,101568.48
2024-03-22T06:08:36.230Z,101566.48
2024-03-22T06:11:12.650Z,101569.14
2024-03-22T06:13:45.217Z,101567.83
2024-03-22T06:17:14.109Z,101564.43
2024-03-22T06:20:17.325Z,101564.56
2024-03-22T06:23:37.007Z,101570.41
2024-03-22T06:27:05.914Z,101565.26
2024-03-22T06:30:34.559Z,101562.68
2024-03-22T06:33:44.334Z,101563.29
2024-03-22T06:36:16.093Z,101556.20
2024-03-22T06:39:34.773Z,101549.27
2024-03-22T06:42:36.395Z,101547.02
2024-03-22T06:45:22.387Z,101550.69
2024-03-22T06:48:31.019Z,101551.06
2024-03-22T06:51:39.024Z,101551.45
2024-03-22T06:54:25.123Z,101551.98
2024-03-22T06:57:24.444Z,101552.02
2024-03-22T06:59:56.295Z,101546.30
2024-03-22T07:02:47.620Z,101544.08
2024-03-22T07:05:19.283Z,101539.55
2024-03-22T07:07:48.116Z,101534.86
2024-03-22T07:10:57.147Z,101538.65
2024-03-22T07:13:25.989Z,101532.89
2024-03-22T07:16:07.223Z,101528.15
2024-03-22T07:19:21.760Z,101530.20
2024-03-22T07:22:25.899Z,101528.77
2024-03-22T07:25:50.804Z,101530.23
2024-03-22T07:28:43.439Z,101532.73
2024-03-22T07:32:01.268Z,101528.34
2024-03-22T07:35:29.961Z,101534.66
2024-03-22T07:38:45.278Z,101537.84
2024-03-22T07:41:14.252Z,101529.77
2024-03-22T07:43:45.806Z,101530.91
2024-03-22T07:46:38.064Z,101527.16
2024-03-22T07:49:16.092Z,101527.01
2024-03-22T07:52:08.572Z,101528.45
2024-03-22T07:55:04.576Z,101518.78
2024-03-22T07:57:52.773Z,101515.69
2024-03-22T08:00:28.311Z,101511.42
2024-03-22T08:02:59.968Z,101511.48
2024-03-22T08:05:28.925Z,101507.70
2024-03-22T08:07:57.727Z,101503.75
2024-03-22T08:10:46.439Z,101494.27
2024-03-22T08:13:19.007Z,101493.28
2024-03-22T08:16:00.969Z,101488.14
2024-03-22T08:19:30.134Z,101481.95
2024-03-22T08:22:39.047Z,101479.22
2024-03-22T08:25:33.279Z,101480.89
2024-03-22T08:28:52.319Z,101478.21
2024-03-22T08:31:44.276Z,101472.93
2024-03-22T08:34:39.296Z,101473.23
2024-03-22T08:37:30.880Z,101465.21
2024-03-22T08:40:08.740Z,101459.04
2024-03-22T08:43:20.973Z,101461.05
2024-03-22T08:46:33.227Z,101454.55
2024-03-22T08:49:55.272Z,101453.79
2024-03-22T08:53:10.412Z,101457.70
2024-03-22T08:56:09.985Z,101456.46
2024-03-22T08:58:42.304Z,101454.03
2024-03-22T09:01:13.845Z,101454.94
2024-03-22T09:03:50.582Z,101454.29
2024-03-22T09:06:31.903Z,101452.06
2024-03-22T09:09:32.467Z,101453.30
2024-03-22T09:12:42.954Z,101455.45
2024-03-22T09:15:11.936Z,101441.84
2024-03-22T09:18:41.045Z,101437.20
2024-03-22T09:21:59.886Z,101428.77
2024-03-22T09:25:08.671Z,101427.64
2024-03-22T09:27:42.522Z,101432.58
2024-03-22T09:30:21.317Z,101433.85
2024-03-22T09:32:50.186Z,101438.76
2024-03-22T09:35:29.258Z,101440.38
2024-03-22T09:38:58.078Z,101437.95
2024-03-22T09:41:40.429Z,101429.65
2024-03-22T09:44:34.977Z,101417.92
2024-03-22T09:48:03.831Z,101407.06
2024-03-22T09:51:32.329Z,101398.77
2024-03-22T09:54:20.076Z,101396.60
2024-03-22T09:57:33.055Z,101389.05
2024-03-22T10:00:42.121Z,101380.65
2024-03-22T10:03:51.145Z,101374.07
2024-03-22T10:07:03.587Z,101381.08
2024-03-22T10:09:57.109Z,101382.73
2024-03-22T10:12:57.922Z,101378.27
2024-03-22T10:15:44.499Z,101377.98
2024-03-22T10:18:38.922Z,101363.09
2024-03-22T10:21:14.992Z,101344.48
2024-03-22T10:23:54.310Z,101336.36
2024-03-22T10:26:38.409Z,101334.13
2024-03-22T10:30:02.927Z,101335.51
2024-03-22T10:32:34.810Z,101346.99
2024-03-22T10:35:08.950Z,101349.84
2024-03-22T10:37:37.893Z,101343.13
2024-03-22T10:40:33.036Z,101339.38
2024-03-22T10:43:40.521Z,101339.98
2024-03-22T10:46:25.860Z,101339.70
2024-03-22T10:48:59.826Z,101336.95
2024-03-22T10:51:55.107Z,101330.88
2024-03-22T10:54:47.586Z,101328.40
2024-03-22T10:57:19.781Z,101325.77
2024-03-22T10:59:58.255Z,101319.45
2024-03-22T11:02:30.233Z,101316.80
2024-03-22T11:05:01.926Z,101318.98
2024-03-22T11:07:37.636Z,101323.03
2024-03-22T11:10:10.300Z,101322.75
2024-03-22T11:12:40.845Z,101314.16
2024-03-22T11:15:14.199Z,101313.73
2024-03-22T11:17:45.666Z,101318.64
2024-03-22T11:20:14.175Z,101313.98
2024-03-22T11:22:46.502Z,101306.20
2024-03-22T11:25:31.364Z,101300.88
2024-03-22T11:28:02.553Z,101299.54
2024-03-22T11:30:42.984Z,101294.09
2024-03-22T11:33:33.039Z,101293.34
2024-03-22T11:36:52.554Z,101293.80
2024-03-22T11:40:21.483Z,101288.00
2024-03-22T11:43:13.582Z,101280.04
2024-03-22T11:46:02.937Z,101276.48
2024-03-22T11:48:46.289Z,101277.27
2024-03-22T11:51:18.256Z,101275.30
2024-03-22T11:54:07.893Z,101269.55
2024-03-22T11:56:38.339Z,101269.68
2024-03-22T11:59:10.181Z,101268.43
2024-03-22T12:02:07.095Z,101270.11
2024-03-22T12:04:38.706Z,101266.56
2024-03-22T12:07:19.620Z,101267.70
2024-03-22T12:09:48.908Z,101261.05
2024-03-22T12:12:27.367Z,101255.96
2024-03-22T12:14:55.948Z,101253.30
2024-03-22T12:17:37.917Z,101248.38
2024-03-22T12:20:23.970Z,101240.87
2024-03-22T12:22:52.194Z,101235.12
2024-03-22T12:25:35.026Z,101231.08
2024-03-22T12:28:16.570Z,101227.52
2024-03-22T12:30:48.398Z,101222.61
2024-03-22T12:33:16.898Z,101215.92
2024-03-22T12:35:45.809Z,101208.89
2024-03-22T12:38:15.551Z,101200.52
2024-03-22T12:40:44.183Z,101192.40
2024-03-22T12:43:25.902Z,101188.94
2024-03-22T12:45:54.544Z,101182.20
2024-03-22T12:48:38.577Z,101178.23
2024-03-22T12:51:07.885Z,101169.30
2024-03-22T12:53:36.275Z,101158.27
2024-03-22T12:56:07.533Z,101139.97
2024-03-22T12:59:11.061Z,101127.73
2024-03-22T13:02:19.135Z,101125.08
2024-03-22T13:05:14.019Z,101141.10
2024-03-22T13:07:51.577Z,101154.86
2024-03-22T13:10:48.970Z,101158.55
2024-03-22T13:13:18.596Z,101158.59
2024-03-22T13:16:08.914Z,101164.74
2024-03-22T13:18:50.838Z,101162.45
2024-03-22T13:21:19.408Z,101154.19
2024-03-22T13:23:48.765Z,101141.26
2024-03-22T13:26:56.451Z,101127.52
2024-03-22T13:29:28.823Z,101122.14
2024-03-22T13:32:01.768Z,101132.46
2024-03-22T13:34:31.220Z,101129.21
2024-03-22T13:37:00.267Z,101125.98
2024-03-22T13:39:54.306Z,101113.51
2024-03-22T13:43:23.316Z,101108.31
2024-03-22T13:46:19.188Z,101111.17
2024-03-22T13:49:38.543Z,101108.59
2024-03-22T13:53:07.468Z,101099.25
2024-03-22T13:56:36.650Z,101098.23
2024-03-22T13:59:18.009Z,101095.69
2024-03-22T14:02:00.127Z,101093.64
2024-03-22T14:04:42.724Z,101092.73
2024-03-22T14:07:11.681Z,101090.11
2024-03-22T14:09:45.417Z,101086.36
2024-03-22T14:12:17.466Z,101081.78
2024-03-22T14:15:16.308Z,101084.35
2024-03-22T14:17:57.988Z,101086.79
2024-03-22T14:20:46.784Z,101077.97
2024-03-22T14:23:24.595Z,101078.00
2024-03-22T14:25:57.417Z,101072.48
2024-03-22T14:28:41.818Z,101064.27
2024-03-22T14:32:13.407Z,101056.40
2024-03-22T14:35:34.497Z,101040.97
2024-03-22T14:38:46.429Z,101028.98
2024-03-22T14:41:43.953Z,101021.98
2024-03-22T14:44:24.488Z,101020.31
2024-03-22T14:46:56.557Z,101013.27
2024-03-22T14:49:28.127Z,101010.98
2024-03-22T14:51:59.931Z,101005.07
2024-03-22T14:54:48.728Z,101004.65
2024-03-22T14:57:38.480Z,101001.30
2024-03-22T15:00:56.824Z,101000.87
2024-03-22T15:04:00.910Z,101007.70
2024-03-22T15:07:29.803Z,101009.23
2024-03-22T15:10:31.713Z,101010.54
2024-03-22T15:14:00.834Z,101022.93
2024-03-22T15:16:32.950Z,101030.33
2024-03-22T15:19:31.831Z,101026.66
2024-03-22T15:22:10.789Z,101018.14
2024-03-22T15:25:10.118Z,101014.30
2024-03-22T15:27:39.021Z,101013.21
2024-03-22T15:30:17.868Z,101013.50
2024-03-22T15:32:50.237Z,101016.58
2024-03-22T15:35:18.767Z,101018.81
2024-03-22T15:37:48.277Z,101018.44
2024-03-22T15:40:16.838Z,101016.99
2024-03-22T15:42:45.541Z,101010.56
2024-03-22T15:45:14.590Z,100998.09
2024-03-22T15:47:43.169Z,100997.05
2024-03-22T15:50:12.277Z,100993.57
2024-03-22T15:53:12.863Z,100997.19
2024-03-22T15:55:44.973Z,100998.73
2024-03-22T15:58:16.850Z,100999.09
2024-03-22T16:00:54.536Z,100998.09
2024-03-22T16:03:33.962Z,100996.21
2024-03-22T16:06:31.773Z,101000.09
2024-03-22T16:09:24.925Z,100998.92
2024-03-22T16:12:53.598Z,101004.73
2024-03-22T16:16:07.366Z,101001.04
2024-03-22T16:19:15.932Z,100989.40
2024-03-22T16:22:05.122Z,100983.61
2024-03-22T16:24:37.734Z,100986.46
2024-03-22T16:27:09.828Z,100990.14
2024-03-22T16:29:51.105Z,100995.90
2024-03-22T16:32:23.867Z,100996.81
2024-03-22T16:35:02.759Z,100995.63
2024-03-22T16:37:40.826Z,100993.27
2024-03-22T16:40:13.418Z,100995.27
2024-03-22T16:42:52.074Z,100994.64
2024-03-22T16:45:44.473Z,100999.40
2024-03-22T16:48:21.747Z,101002.95
2024-03-22T16:51:00.703Z,101009.41
2024-03-22T16:54:12.672Z,101018.50
2024-03-22T16:56:45.379Z,101012.48
2024-03-22T16:59:31.881Z,101005.61
2024-03-22T17:02:03.685Z,101003.42
2024-03-22T17:05:12.842Z,101017.83
2024-03-22T17:07:51.693Z,101031.88
2024-03-22T17:10:20.944Z,101046.16
2024-03-22T17:12:49.561Z,101056.07
2024-03-22T17:15:18.179Z,101061.48
2024-03-22T17:17:49.322Z,101074.31
2024-03-22T17:20:21.085Z,101093.53
2024-03-22T17:22:49.774Z,101093.20
2024-03-22T17:25:18.453Z,101083.31
2024-03-22T17:27:47.603Z,101084.04
2024-03-22T17:30:16.620Z,101077.48
2024-03-22T17:32:54.232Z,101073.87
2024-03-22T17:35:25.571Z,101074.58
2024-03-22T17:38:13.136Z,101071.63
2024-03-22T17:40:41.825Z,101070.89
2024-03-22T17:43:16.329Z,101071.21
2024-03-22T17:46:25.166Z,101062.87
2024-03-22T17:48:58.063Z,101060.73
2024-03-22T17:52:26.866Z,101062.73
2024-03-22T17:55:28.536Z,101057.30
2024-03-22T17:58:00.468Z,101054.86
2024-03-22T18:00:42.174Z,101042.04
2024-03-22T18:03:13.831Z,101033.22
2024-03-22T18:06:05.900Z,101034.09
2024-03-22T18:08:38.411Z,101032.02
2024-03-22T18:11:07.600Z,101026.09
2024-03-22T18:14:16.796Z,101018.77
2024-03-22T18:16:48.783Z,101009.23
2024-03-22T18:19:18.222Z,101008.72
2024-03-22T18:22:10.573Z,101003.35
2024-03-22T18:25:29.971Z,101000.09
2024-03-22T18:28:28.072Z,101000.79
2024-03-22T18:31:32.584Z,100993.71
2024-03-22T18:34:27.811Z,100990.35
2024-03-22T18:37:21.685Z,100985.80
2024-03-22T18:40:15.855Z,100981.02
2024-03-22T18:43:44.980Z,100974.16
2024-03-22T18:46:49.797Z,100961.73
2024-03-22T18:49:41.893Z,100960.87
2024-03-22T18:53:10.751Z,100949.77
2024-03-22T18:56:20.276Z,100936.44
2024-03-22T18:59:32.508Z,100929.73
2024-03-22T19:02:15.289Z,100925.74
2024-03-22T19:05:13.288Z,100918.85
2024-03-22T19:08:23.175Z,100917.23
2024-03-22T19:10:54.813Z,100924.26
2024-03-22T19:13:56.098Z,100922.39
2024-03-22T19:16:44.828Z,100927.66
2024-03-22T19:19:25.818Z,100927.55
2024-03-22T19:22:17.733Z,100924.83
2024-03-22T19:25:35.798Z,100921.05
2024-03-22T19:28:43.923Z,100922.27
2024-03-22T19:31:51.672Z,100918.29
2024-03-22T19:34:33.829Z,100913.42
2024-03-22T19:37:25.654Z,100913.81
2024-03-22T19:40:20.285Z,100905.31
2024-03-22T19:42:49.131Z,100903.10
2024-03-22T19:46:03.148Z,100903.98
2024-03-22T19:48:45.859Z,100906.79
2024-03-22T19:51:54.571Z,100902.63
2024-03-22T19:54:24.770Z,100899.34
2024-03-22T19:57:27.252Z,100897.81
2024-03-22T20:00:00.265Z,100898.89
2024-03-22T20:03:14.610Z,100900.27
2024-03-22T20:05:47.551Z,100905.84
2024-03-22T20:08:16.316Z,100906.73
2024-03-22T20:10:44.713Z,100902.55
2024-03-22T20:13:23.837Z,100906.20
2024-03-22T20:16:37.135Z,100909.31
2024-03-22T20:19:09.090Z,100910.22
2024-03-22T20:21:58.104Z,100911.83
2024-03-22T20:24:39.268Z,100911.56
2024-03-22T20:28:08.783Z,100906.95
2024-03-22T20:30:40.871Z,100899.30
2024-03-22T20:33:13.139Z,100893.93
2024-03-22T20:36:05.950Z,100888.17
2024-03-22T20:39:05.336Z,100882.08
2024-03-22T20:42:04.951Z,100873.42
2024-03-22T20:44:56.783Z,100872.06
2024-03-22T20:48:26.507Z,100873.83
2024-03-22T20:51:38.080Z,100877.83
2024-03-22T20:55:06.151Z,100877.48
2024-03-22T20:58:35.174Z,100879.03
2024-03-22T21:02:04.116Z,100870.66
2024-03-22T21:05:31.351Z,100860.04
2024-03-22T21:09:00.982Z,100855.65
2024-03-22T21:12:21.968Z,100851.16
2024-03-22T21:15:51.258Z,100845.84
2024-03-22T21:19:11.411Z,100835.61
2024-03-22T21:22:41.090Z,100823.45
2024-03-22T21:26:09.622Z,100820.52
2024-03-22T21:29:29.726Z,100808.41
2024-03-22T21:32:58.494Z,100792.81
2024-03-22T21:36:26.887Z,100781.75
2024-03-22T21:39:49.327Z,100768.92
2024-03-22T21:42:58.066Z,100756.08
2024-03-22T21:46:19.827Z,100746.69
2024-03-22T21:49:48.480Z,100746.17
2024-03-22T21:53:17.043Z,100736.27
2024-03-22T21:56:46.199Z,100731.79
2024-03-22T22:00:14.823Z,100719.98
2024-03-22T22:03:44.831Z,100718.93
2024-03-22T22:07:17.652Z,100710.76
2024-03-22T22:10:39.634Z,100700.00
2024-03-22T22:14:08.984Z,100690.43
2024-03-22T22:17:37.819Z,100678.09
2024-03-22T22:21:07.559Z,100672.35
2024-03-22T22:24:36.881Z,100673.39
2024-03-22T22:27:54.941Z,100668.71
2024-03-22T22:31:25.821Z,100666.61
2024-03-22T22:34:56.440Z,100665.03
2024-03-22T22:38:25.667Z,100671.23
2024-03-22T22:41:54.824Z,100673.50
2024-03-22T22:45:23.756Z,100669.16
2024-03-22T22:48:53.339Z,100664.81
2024-03-22T22:52:21.978Z,100661.52
2024-03-22T22:55:50.534Z,100659.96
2024-03-22T22:59:19.356Z,100655.65
2024-03-22T23:02:47.024Z,100653.21
2024-03-22T23:06:04.385Z,100648.35
2024-03-22T23:09:32.889Z,100642.95
2024-03-22T23:13:00.299Z,100624.38
2024-03-22T23:16:29.649Z,100617.42
2024-03-22T23:19:58.480Z,100605.10
2024-03-22T23:23:27.474Z,100598.52
2024-03-22T23:26:57.213Z,100589.65
2024-03-22T23:30:16.379Z,100575.76
2024-03-22T23:33:39.283Z,100554.94
2024-03-22T23:37:08.535Z,100541.22
2024-03-22T23:40:37.579Z,100532.89
2024-03-22T23:44:06.630Z,100525.73
2024-03-22T23:46:54.458Z,100523.63
2024-03-22T23:50:23.455Z,100518.40
2024-03-22T23:53:52.659Z,100511.09
2024-03-22T23:57:21.929Z,100507.10
